sensor_id;sensor_type;location;lat;lon;timestamp;temperature;humidity
9668;DHT22;4872;48.316;10.650;2022-12-10T04:52:49;1.60;99.90
9668;DHT22;4872;48.316;10.650;2022-12-10T04:55:16;1.60;99.90
9668;DHT22;4872;48.316;10.650;2022-12-10T04:57:43;1.60;99.90
9668;DHT22;4872;48.316;10.650;2022-12-10T05:00:11;1.60;99.90
9668;DHT22;4872;48.316;10.650;2022-12-10T05:02:38;1.60;99.90
9668;DHT22;4872;48.316;10.650;2022-12-10T05:05:05;1.60;99.90
9668;DHT22;4872;48.316;10.650;2022-12-10T05:07:32;1.60;99.90
9668;DHT22;4872;48.316;10.650;2022-12-10T05:10:00;1.60;99.90
9668;DHT22;4872;48.316;10.650;2022-12-10T05:12:27;1.60;99.90
9668;DHT22;4872;48.316;10.650;2022-12-10T05:14:54;1.60;99.90
9668;DHT22;4872;48.316;10.650;2022-12-10T05:17:21;1.60;99.90
9668;DHT22;4872;48.316;10.650;2022-12-10T05:19:47;1.60;99.90
9668;DHT22;4872;48.316;10.650;2022-12-10T05:22:14;1.60;99.90
9668;DHT22;4872;48.316;10.650;2022-12-10T05:25:00;1.60;99.90
9668;DHT22;4872;48.316;10.650;2022-12-10T05:27:31;1.70;99.90
9668;DHT22;4872;48.316;10.650;2022-12-10T05:29:58;1.50;99.90
9668;DHT22;4872;48.316;10.650;2022-12-10T05:32:24;1.50;99.90
9668;DHT22;4872;48.316;10.650;2022-12-10T05:34:51;1.50;99.90
9668;DHT22;4872;48.316;10.650;2022-12-10T05:37:18;1.60;99.90
9668;DHT22;4872;48.316;10.650;2022-12-10T05:39:45;1.50;99.90
9668;DHT22;4872;48.316;10.650;2022-12-10T05:42:13;1.60;99.90
9668;DHT22;4872;48.316;10.650;2022-12-10T05:44:40;1.50;99.90
9668;DHT22;4872;48.316;10.650;2022-12-10T05:47:07;1.60;99.90
9668;DHT22;4872;48.316;10.650;2022-12-10T05:49:33;1.60;99.90
9668;DHT22;4872;48.316;10.650;2022-12-10T05:52:00;1.60;99.90
9668;DHT22;4872;48.316;10.650;2022-12-10T05:54:27;1.60;99.90
9668;DHT22;4872;48.316;10.650;2022-12-10T05:56:54;1.60;99.90
9668;DHT22;4872;48.316;10.650;2022-12-10T05:59:22;1.60;99.90
9668;DHT22;4872;48.316;10.650;2022-12-10T06:01:49;1.60;99.90
9668;DHT22;4872;48.316;10.650;2022-12-10T06:04:15;1.60;99.90
9668;DHT22;4872;48.316;10.650;2022-12-10T06:06:42;1.60;99.90
9668;DHT22;4872;48.316;10.650;2022-12-10T06:09:12;1.60;99.90
9668;DHT22;4872;48.316;10.650;2022-12-10T06:11:39;1.60;99.90
9668;DHT22;4872;48.316;10.650;2022-12-10T06:14:06;1.60;99.90
9668;DHT22;4872;48.316;10.650;2022-12-10T06:16:34;1.60;99.90
9668;DHT22;4872;48.316;10.650;2022-12-10T06:19:01;1.70;99.90
9668;DHT22;4872;48.316;10.650;2022-12-10T06:21:28;1.60;99.90
9668;DHT22;4872;48.316;10.650;2022-12-10T06:23:54;1.70;99.90
9668;DHT22;4872;48.316;10.650;2022-12-10T06:26:23;1.60;99.90
9668;DHT22;4872;48.316;10.650;2022-12-10T06:28:50;1.70;99.90
9668;DHT22;4872;48.316;10.650;2022-12-10T06:31:18;1.60;99.90
9668;DHT22;4872;48.316;10.650;2022-12-10T06:33:46;1.60;99.90
9668;DHT22;4872;48.316;10.650;2022-12-10T06:36:14;1.60;99.90
9668;DHT22;4872;48.316;10.650;2022-12-10T06:38:42;1.60;99.90
9668;DHT22;4872;48.316;10.650;2022-12-10T06:41:11;1.60;99.90
9668;DHT22;4872;48.316;10.650;2022-12-10T06:43:38;1.50;99.90
9668;DHT22;4872;48.316;10.650;2022-12-10T06:46:05;1.50;99.90
9668;DHT22;4872;48.316;10.650;2022-12-10T06:48:33;1.50;99.90
9668;DHT22;4872;48.316;10.650;2022-12-10T06:51:01;1.50;99.90
9668;DHT22;4872;48.316;10.650;2022-12-10T06:53:28;1.50;99.90
9668;DHT22;4872;48.316;10.650;2022-12-10T06:55:58;1.50;99.90
9668;DHT22;4872;48.316;10.650;2022-12-10T06:58:26;1.50;99.90
9668;DHT22;4872;48.316;10.650;2022-12-10T07:00:53;1.50;99.90
9668;DHT22;4872;48.316;10.650;2022-12-10T07:03:19;1.50;99.90
9668;DHT22;4872;48.316;10.650;2022-12-10T07:05:46;1.50;99.90
9668;DHT22;4872;48.316;10.650;2022-12-10T07:08:15;1.50;99.90
9668;DHT22;4872;48.316;10.650;2022-12-10T07:10:43;1.50;99.90
9668;DHT22;4872;48.316;10.650;2022-12-10T07:13:10;1.50;99.90
9668;DHT22;4872;48.316;10.650;2022-12-10T07:15:36;1.50;99.90
9668;DHT22;4872;48.316;10.650;2022-12-10T07:18:03;1.50;99.90
9668;DHT22;4872;48.316;10.650;2022-12-10T07:20:30;1.50;99.90
9668;DHT22;4872;48.316;10.650;2022-12-10T07:22:57;1.60;99.90
9668;DHT22;4872;48.316;10.650;2022-12-10T07:25:25;1.60;99.90
9668;DHT22;4872;48.316;10.650;2022-12-10T07:27:52;1.60;99.90
9668;DHT22;4872;48.316;10.650;2022-12-10T07:30:18;1.60;99.90
9668;DHT22;4872;48.316;10.650;2022-12-10T07:32:45;1.60;99.90
9668;DHT22;4872;48.316;10.650;2022-12-10T07:35:12;1.60;99.90
9668;DHT22;4872;48.316;10.650;2022-12-10T07:37:39;1.60;99.90
9668;DHT22;4872;48.316;10.650;2022-12-10T07:40:06;1.60;99.90
9668;DHT22;4872;48.316;10.650;2022-12-10T07:42:34;1.60;99.90
9668;DHT22;4872;48.316;10.650;2022-12-10T07:45:01;1.60;99.90
9668;DHT22;4872;48.316;10.650;2022-12-10T07:47:29;1.60;99.90
9668;DHT22;4872;48.316;10.650;2022-12-10T07:49:56;1.60;99.90
9668;DHT22;4872;48.316;10.650;2022-12-10T07:52:23;1.60;99.90
9668;DHT22;4872;48.316;10.650;2022-12-10T07:54:49;1.60;99.90
9668;DHT22;4872;48.316;10.650;2022-12-10T07:57:16;1.60;99.90
9668;DHT22;4872;48.316;10.650;2022-12-10T07:59:44;1.60;99.90
9668;DHT22;4872;48.316;10.650;2022-12-10T08:02:11;1.60;99.90
9668;DHT22;4872;48.316;10.650;2022-12-10T08:04:38;1.60;99.90
9668;DHT22;4872;48.316;10.650;2022-12-10T08:07:05;1.70;99.90
9668;DHT22;4872;48.316;10.650;2022-12-10T08:09:33;1.70;99.90
9668;DHT22;4872;48.316;10.650;2022-12-10T08:12:00;1.70;99.90
9668;DHT22;4872;48.316;10.650;2022-12-10T08:14:30;1.80;99.90
9668;DHT22;4872;48.316;10.650;2022-12-10T08:16:58;1.70;99.90
9668;DHT22;4872;48.316;10.650;2022-12-10T08:19:25;1.80;99.90
9668;DHT22;4872;48.316;10.650;2022-12-10T08:21:52;1.80;99.90
9668;DHT22;4872;48.316;10.650;2022-12-10T08:24:19;1.80;99.90
9668;DHT22;4872;48.316;10.650;2022-12-10T08:26:46;1.80;99.90
9668;DHT22;4872;48.316;10.650;2022-12-10T08:29:12;1.80;99.90
9668;DHT22;4872;48.316;10.650;2022-12-10T08:31:39;1.80;99.90
9668;DHT22;4872;48.316;10.650;2022-12-10T08:34:12;1.80;99.90
9668;DHT22;4872;48.316;10.650;2022-12-10T08:36:39;1.80;99.90
9668;DHT22;4872;48.316;10.650;2022-12-10T08:39:06;1.90;99.90
9668;DHT22;4872;48.316;10.650;2022-12-10T08:41:35;1.90;99.90
9668;DHT22;4872;48.316;10.650;2022-12-10T08:44:02;1.90;99.90
9668;DHT22;4872;48.316;10.650;2022-12-10T08:46:29;1.90;99.90
9668;DHT22;4872;48.316;10.650;2022-12-10T08:48:56;1.90;99.90
9668;DHT22;4872;48.316;10.650;2022-12-10T08:51:25;2.00;99.90
9668;DHT22;4872;48.316;10.650;2022-12-10T08:53:52;2.10;99.90
9668;DHT22;4872;48.316;10.650;2022-12-10T08:56:19;2.00;99.90
9668;DHT22;4872;48.316;10.650;2022-12-10T08:58:45;2.00;99.90
9668;DHT22;4872;48.316;10.650;2022-12-10T09:01:15;2.00;99.90
9668;DHT22;4872;48.316;10.650;2022-12-10T09:03:43;2.10;99.90
9668;DHT22;4872;48.316;10.650;2022-12-10T09:06:12;2.10;99.90
9668;DHT22;4872;48.316;10.650;2022-12-10T09:08:40;2.10;99.90
9668;DHT22;4872;48.316;10.650;2022-12-10T09:11:09;2.10;99.90
9668;DHT22;4872;48.316;10.650;2022-12-10T09:13:36;2.10;99.90
9668;DHT22;4872;48.316;10.650;2022-12-10T09:16:04;2.20;99.90
9668;DHT22;4872;48.316;10.650;2022-12-10T09:18:31;2.20;99.90
9668;DHT22;4872;48.316;10.650;2022-12-10T09:20:58;2.20;99.90
9668;DHT22;4872;48.316;10.650;2022-12-10T09:23:25;2.30;99.90
9668;DHT22;4872;48.316;10.650;2022-12-10T09:25:53;2.30;99.90
9668;DHT22;4872;48.316;10.650;2022-12-10T09:28:20;2.30;99.90
9668;DHT22;4872;48.316;10.650;2022-12-10T09:30:55;2.30;99.90
9668;DHT22;4872;48.316;10.650;2022-12-10T09:33:22;2.40;99.90
9668;DHT22;4872;48.316;10.650;2022-12-10T09:35:49;2.50;99.90
9668;DHT22;4872;48.316;10.650;2022-12-10T09:38:16;2.40;99.90
9668;DHT22;4872;48.316;10.650;2022-12-10T09:40:47;2.40;99.90
9668;DHT22;4872;48.316;10.650;2022-12-10T09:43:23;2.40;99.90
9668;DHT22;4872;48.316;10.650;2022-12-10T09:46:00;2.40;99.90
9668;DHT22;4872;48.316;10.650;2022-12-10T09:48:32;2.40;99.90
9668;DHT22;4872;48.316;10.650;2022-12-10T09:51:03;2.40;99.90
9668;DHT22;4872;48.316;10.650;2022-12-10T09:53:32;2.40;99.90
9668;DHT22;4872;48.316;10.650;2022-12-10T09:56:00;2.50;99.90
9668;DHT22;4872;48.316;10.650;2022-12-10T09:58:28;2.40;99.90
9668;DHT22;4872;48.316;10.650;2022-12-10T10:00:58;2.40;99.90
9668;DHT22;4872;48.316;10.650;2022-12-10T10:03:25;2.40;99.90
9668;DHT22;4872;48.316;10.650;2022-12-10T10:05:53;2.40;99.90
9668;DHT22;4872;48.316;10.650;2022-12-10T10:08:27;2.40;99.90
9668;DHT22;4872;48.316;10.650;2022-12-10T10:10:56;2.40;99.90
9668;DHT22;4872;48.316;10.650;2022-12-10T10:13:31;2.40;99.90
9668;DHT22;4872;48.316;10.650;2022-12-10T10:16:13;2.40;99.90
9668;DHT22;4872;48.316;10.650;2022-12-10T10:18:45;2.40;99.90
9668;DHT22;4872;48.316;10.650;2022-12-10T10:21:17;2.50;99.90
9668;DHT22;4872;48.316;10.650;2022-12-10T10:23:46;2.40;99.90
9668;DHT22;4872;48.316;10.650;2022-12-10T10:26:13;2.60;99.90
9668;DHT22;4872;48.316;10.650;2022-12-10T10:28:41;2.40;99.90
9668;DHT22;4872;48.316;10.650;2022-12-10T10:31:18;2.40;99.90
9668;DHT22;4872;48.316;10.650;2022-12-10T10:33:50;2.50;99.90
9668;DHT22;4872;48.316;10.650;2022-12-10T10:36:23;2.30;99.90
9668;DHT22;4872;48.316;10.650;2022-12-10T10:38:51;2.30;99.90
9668;DHT22;4872;48.316;10.650;2022-12-10T10:41:18;2.30;99.90
9668;DHT22;4872;48.316;10.650;2022-12-10T10:43:46;2.30;99.90
9668;DHT22;4872;48.316;10.650;2022-12-10T10:46:17;2.30;99.90
9668;DHT22;4872;48.316;10.650;2022-12-10T10:48:47;2.40;99.90
9668;DHT22;4872;48.316;10.650;2022-12-10T10:51:19;2.40;99.90
9668;DHT22;4872;48.316;10.650;2022-12-10T10:53:49;2.30;99.90
9668;DHT22;4872;48.316;10.650;2022-12-10T10:56:19;2.40;99.90
9668;DHT22;4872;48.316;10.650;2022-12-10T10:58:55;2.40;99.90
9668;DHT22;4872;48.316;10.650;2022-12-10T11:01:25;2.40;99.90
9668;DHT22;4872;48.316;10.650;2022-12-10T11:03:55;2.40;99.90
9668;DHT22;4872;48.316;10.650;2022-12-10T11:06:22;2.40;99.90
9668;DHT22;4872;48.316;10.650;2022-12-10T11:08:57;2.40;99.90
9668;DHT22;4872;48.316;10.650;2022-12-10T11:11:32;2.40;99.90
9668;DHT22;4872;48.316;10.650;2022-12-10T11:14:15;2.40;99.90
9668;DHT22;4872;48.316;10.650;2022-12-10T11:16:42;2.40;99.90
9668;DHT22;4872;48.316;10.650;2022-12-10T11:19:19;2.50;99.90
9668;DHT22;4872;48.316;10.650;2022-12-10T11:21:47;2.60;99.90
9668;DHT22;4872;48.316;10.650;2022-12-10T11:24:17;2.60;99.90
9668;DHT22;4872;48.316;10.650;2022-12-10T11:26:56;2.70;99.90
9668;DHT22;4872;48.316;10.650;2022-12-10T11:29:48;2.70;99.90
9668;DHT22;4872;48.316;10.650;2022-12-10T11:32:31;2.70;99.90
9668;DHT22;4872;48.316;10.650;2022-12-10T11:35:12;2.60;99.90
9668;DHT22;4872;48.316;10.650;2022-12-10T11:37:47;2.60;99.90
9668;DHT22;4872;48.316;10.650;2022-12-10T11:40:32;2.50;99.90
9668;DHT22;4872;48.316;10.650;2022-12-10T11:43:08;2.50;99.90
9668;DHT22;4872;48.316;10.650;2022-12-10T11:45:50;2.40;99.90
9668;DHT22;4872;48.316;10.650;2022-12-10T11:48:32;2.40;99.90
9668;DHT22;4872;48.316;10.650;2022-12-10T11:51:03;2.40;99.90
9668;DHT22;4872;48.316;10.650;2022-12-10T11:53:43;2.40;99.90
9668;DHT22;4872;48.316;10.650;2022-12-10T11:56:18;2.40;99.90
9668;DHT22;4872;48.316;10.650;2022-12-10T11:58:59;2.40;99.90
9668;DHT22;4872;48.316;10.650;2022-12-10T12:01:42;2.40;99.90
9668;DHT22;4872;48.316;10.650;2022-12-10T12:04:33;2.40;99.90
9668;DHT22;4872;48.316;10.650;2022-12-10T12:07:18;2.40;99.90
9668;DHT22;4872;48.316;10.650;2022-12-10T12:09:58;2.40;99.90
9668;DHT22;4872;48.316;10.650;2022-12-10T12:12:34;2.40;99.90
9668;DHT22;4872;48.316;10.650;2022-12-10T12:15:04;2.40;99.90
9668;DHT22;4872;48.316;10.650;2022-12-10T12:17:43;2.40;99.90
9668;DHT22;4872;48.316;10.650;2022-12-10T12:20:17;2.30;99.90
9668;DHT22;4872;48.316;10.650;2022-12-10T12:22:48;2.30;99.90
9668;DHT22;4872;48.316;10.650;2022-12-10T12:25:21;2.20;99.90
9668;DHT22;4872;48.316;10.650;2022-12-10T12:27:51;2.20;99.90
9668;DHT22;4872;48.316;10.650;2022-12-10T12:30:21;2.10;99.90
9668;DHT22;4872;48.316;10.650;2022-12-10T12:32:55;2.00;99.90
9668;DHT22;4872;48.316;10.650;2022-12-10T12:35:29;2.10;99.90
9668;DHT22;4872;48.316;10.650;2022-12-10T12:38:03;2.00;99.90
9668;DHT22;4872;48.316;10.650;2022-12-10T12:40:36;2.10;99.90
9668;DHT22;4872;48.316;10.650;2022-12-10T12:43:10;2.10;99.90
9668;DHT22;4872;48.316;10.650;2022-12-10T12:45:40;2.10;99.90
9668;DHT22;4872;48.316;10.650;2022-12-10T12:48:29;2.00;99.90
9668;DHT22;4872;48.316;10.650;2022-12-10T12:51:02;2.00;99.90
9668;DHT22;4872;48.316;10.650;2022-12-10T12:53:30;1.90;99.90
9668;DHT22;4872;48.316;10.650;2022-12-10T12:56:01;1.80;99.90
9668;DHT22;4872;48.316;10.650;2022-12-10T12:58:36;1.70;99.90
9668;DHT22;4872;48.316;10.650;2022-12-10T13:01:18;1.70;99.90
9668;DHT22;4872;48.316;10.650;2022-12-10T13:03:48;1.70;99.90
9668;DHT22;4872;48.316;10.650;2022-12-10T13:06:19;1.70;99.90
9668;DHT22;4872;48.316;10.650;2022-12-10T13:08:49;1.70;99.90
9668;DHT22;4872;48.316;10.650;2022-12-10T13:11:30;1.70;99.90
9668;DHT22;4872;48.316;10.650;2022-12-10T13:14:15;1.70;99.90
9668;DHT22;4872;48.316;10.650;2022-12-10T13:16:50;1.80;99.90
9668;DHT22;4872;48.316;10.650;2022-12-10T13:19:29;1.80;99.90
9668;DHT22;4872;48.316;10.650;2022-12-10T13:22:01;1.80;99.90
9668;DHT22;4872;48.316;10.650;2022-12-10T13:24:58;1.90;99.90
9668;DHT22;4872;48.316;10.650;2022-12-10T13:27:30;1.90;99.90
9668;DHT22;4872;48.316;10.650;2022-12-10T13:30:01;1.80;99.90
9668;DHT22;4872;48.316;10.650;2022-12-10T13:32:44;1.70;99.90
9668;DHT22;4872;48.316;10.650;2022-12-10T13:35:29;1.70;99.90
9668;DHT22;4872;48.316;10.650;2022-12-10T13:38:04;1.70;99.90
9668;DHT22;4872;48.316;10.650;2022-12-10T13:40:40;1.60;99.90
9668;DHT22;4872;48.316;10.650;2022-12-10T13:43:28;1.50;99.90
9668;DHT22;4872;48.316;10.650;2022-12-10T13:46:28;1.50;99.90
9668;DHT22;4872;48.316;10.650;2022-12-10T13:48:57;1.50;99.90
9668;DHT22;4872;48.316;10.650;2022-12-10T13:58:06;1.40;99.90
9668;DHT22;4872;48.316;10.650;2022-12-10T14:00:44;1.40;99.90
9668;DHT22;4872;48.316;10.650;2022-12-10T14:03:28;1.40;99.90
9668;DHT22;4872;48.316;10.650;2022-12-10T14:06:11;1.30;99.90
9668;DHT22;4872;48.316;10.650;2022-12-10T14:08:44;1.40;99.90
9668;DHT22;4872;48.316;10.650;2022-12-10T14:11:19;1.30;99.90
9668;DHT22;4872;48.316;10.650;2022-12-10T14:13:51;1.30;99.90
9668;DHT22;4872;48.316;10.650;2022-12-10T14:16:21;1.30;99.90
9668;DHT22;4872;48.316;10.650;2022-12-10T14:18:53;1.40;99.90
9668;DHT22;4872;48.316;10.650;2022-12-10T14:21:21;1.30;99.90
9668;DHT22;4872;48.316;10.650;2022-12-10T14:23:52;1.30;99.90
9668;DHT22;4872;48.316;10.650;2022-12-10T14:26:20;1.30;99.90
9668;DHT22;4872;48.316;10.650;2022-12-10T14:28:48;1.30;99.90
9668;DHT22;4872;48.316;10.650;2022-12-10T14:31:18;1.30;99.90
9668;DHT22;4872;48.316;10.650;2022-12-10T14:33:48;1.30;99.90
9668;DHT22;4872;48.316;10.650;2022-12-10T14:36:20;1.30;99.90
9668;DHT22;4872;48.316;10.650;2022-12-10T14:38:51;1.30;99.90
9668;DHT22;4872;48.316;10.650;2022-12-10T14:41:21;1.20;99.90
9668;DHT22;4872;48.316;10.650;2022-12-10T14:43:49;1.20;99.90
9668;DHT22;4872;48.316;10.650;2022-12-10T14:46:18;1.20;99.90
9668;DHT22;4872;48.316;10.650;2022-12-10T14:48:49;1.20;99.90
9668;DHT22;4872;48.316;10.650;2022-12-10T14:51:18;1.20;99.90
9668;DHT22;4872;48.316;10.650;2022-12-10T14:53:46;1.20;99.90
9668;DHT22;4872;48.316;10.650;2022-12-10T14:56:21;1.20;99.90
9668;DHT22;4872;48.316;10.650;2022-12-10T14:58:55;1.20;99.90
9668;DHT22;4872;48.316;10.650;2022-12-10T15:01:27;1.20;99.90
9668;DHT22;4872;48.316;10.650;2022-12-10T15:03:55;1.10;99.90
9668;DHT22;4872;48.316;10.650;2022-12-10T15:06:23;1.20;99.90
9668;DHT22;4872;48.316;10.650;2022-12-10T15:08:54;1.20;99.90
9668;DHT22;4872;48.316;10.650;2022-12-10T15:11:24;1.10;99.90
9668;DHT22;4872;48.316;10.650;2022-12-10T15:13:53;1.20;99.90
9668;DHT22;4872;48.316;10.650;2022-12-10T15:16:29;1.10;99.90
9668;DHT22;4872;48.316;10.650;2022-12-10T15:19:07;1.10;99.90
9668;DHT22;4872;48.316;10.650;2022-12-10T15:21:41;1.10;99.90
9668;DHT22;4872;48.316;10.650;2022-12-10T15:24:14;1.00;99.90
9668;DHT22;4872;48.316;10.650;2022-12-10T15:26:44;1.00;99.90
9668;DHT22;4872;48.316;10.650;2022-12-10T15:29:32;0.90;99.90
9668;DHT22;4872;48.316;10.650;2022-12-10T15:32:03;0.90;99.90
9668;DHT22;4872;48.316;10.650;2022-12-10T15:34:37;0.90;99.90
9668;DHT22;4872;48.316;10.650;2022-12-10T15:37:05;0.90;99.90
9668;DHT22;4872;48.316;10.650;2022-12-10T15:39:36;0.80;99.90
9668;DHT22;4872;48.316;10.650;2022-12-10T15:42:07;0.80;99.90
9668;DHT22;4872;48.316;10.650;2022-12-10T15:44:37;0.70;99.90
9668;DHT22;4872;48.316;10.650;2022-12-10T15:47:11;0.70;99.90
9668;DHT22;4872;48.316;10.650;2022-12-10T15:49:39;0.70;99.90
9668;DHT22;4872;48.316;10.650;2022-12-10T15:52:12;0.70;99.90
9668;DHT22;4872;48.316;10.650;2022-12-10T15:54:40;0.60;99.90
9668;DHT22;4872;48.316;10.650;2022-12-10T15:57:13;0.50;99.90
9668;DHT22;4872;48.316;10.650;2022-12-10T15:59:41;0.50;99.90
9668;DHT22;4872;48.316;10.650;2022-12-10T16:02:25;0.60;99.90
9668;DHT22;4872;48.316;10.650;2022-12-10T16:04:52;0.50;99.90
9668;DHT22;4872;48.316;10.650;2022-12-10T16:07:19;0.40;99.90
9668;DHT22;4872;48.316;10.650;2022-12-10T16:09:46;0.40;99.90
9668;DHT22;4872;48.316;10.650;2022-12-10T16:12:16;0.30;99.90
9668;DHT22;4872;48.316;10.650;2022-12-10T16:14:48;0.30;99.90
9668;DHT22;4872;48.316;10.650;2022-12-10T16:17:16;0.30;99.90
9668;DHT22;4872;48.316;10.650;2022-12-10T16:19:43;0.20;99.90
9668;DHT22;4872;48.316;10.650;2022-12-10T16:22:10;0.20;99.90
9668;DHT22;4872;48.316;10.650;2022-12-10T16:24:36;0.30;99.90
9668;DHT22;4872;48.316;10.650;2022-12-10T16:27:08;0.30;99.90
9668;DHT22;4872;48.316;10.650;2022-12-10T16:29:38;0.40;99.90
9668;DHT22;4872;48.316;10.650;2022-12-10T16:32:05;0.20;99.90
9668;DHT22;4872;48.316;10.650;2022-12-10T16:34:32;0.20;99.90
9668;DHT22;4872;48.316;10.650;2022-12-10T16:36:59;0.20;99.90
9668;DHT22;4872;48.316;10.650;2022-12-10T16:39:25;0.20;99.90
9668;DHT22;4872;48.316;10.650;2022-12-10T16:41:53;0.10;99.90
9668;DHT22;4872;48.316;10.650;2022-12-10T16:44:20;0.10;99.90
9668;DHT22;4872;48.316;10.650;2022-12-10T16:46:48;0.10;99.90
9668;DHT22;4872;48.316;10.650;2022-12-10T16:49:15;0.10;99.90
9668;DHT22;4872;48.316;10.650;2022-12-10T16:51:42;0.20;99.90
9668;DHT22;4872;48.316;10.650;2022-12-10T16:54:09;0.20;99.90
9668;DHT22;4872;48.316;10.650;2022-12-10T16:56:36;0.30;99.90
9668;DHT22;4872;48.316;10.650;2022-12-10T16:59:03;0.30;99.90
9668;DHT22;4872;48.316;10.650;2022-12-10T17:01:30;0.30;99.90
9668;DHT22;4872;48.316;10.650;2022-12-10T17:03:59;0.30;99.90
9668;DHT22;4872;48.316;10.650;2022-12-10T17:06:26;0.30;99.90
9668;DHT22;4872;48.316;10.650;2022-12-10T17:08:53;0.40;99.90
9668;DHT22;4872;48.316;10.650;2022-12-10T17:11:22;0.20;99.90
9668;DHT22;4872;48.316;10.650;2022-12-10T17:14:17;0.20;99.90
9668;DHT22;4872;48.316;10.650;2022-12-10T17:16:44;0.30;99.90
9668;DHT22;4872;48.316;10.650;2022-12-10T17:19:12;0.20;99.90
9668;DHT22;4872;48.316;10.650;2022-12-10T17:21:39;0.20;99.90
9668;DHT22;4872;48.316;10.650;2022-12-10T17:24:06;0.20;99.90
9668;DHT22;4872;48.316;10.650;2022-12-10T17:26:36;0.20;99.90
9668;DHT22;4872;48.316;10.650;2022-12-10T17:29:05;0.20;99.90
9668;DHT22;4872;48.316;10.650;2022-12-10T17:31:33;0.10;99.90
9668;DHT22;4872;48.316;10.650;2022-12-10T17:34:00;0.10;99.90
9668;DHT22;4872;48.316;10.650;2022-12-10T17:36:28;0.10;99.90
9668;DHT22;4872;48.316;10.650;2022-12-10T17:38:55;0.10;99.90
9668;DHT22;4872;48.316;10.650;2022-12-10T17:41:22;0.10;99.90
9668;DHT22;4872;48.316;10.650;2022-12-10T17:43:49;0.00;99.90
9668;DHT22;4872;48.316;10.650;2022-12-10T17:46:18;0.00;99.90
9668;DHT22;4872;48.316;10.650;2022-12-10T17:48:46;0.00;99.90
9668;DHT22;4872;48.316;10.650;2022-12-10T17:51:13;0.00;99.90
9668;DHT22;4872;48.316;10.650;2022-12-10T17:53:42;0.00;99.90
9668;DHT22;4872;48.316;10.650;2022-12-10T17:56:13;0.00;99.90
9668;DHT22;4872;48.316;10.650;2022-12-10T17:58:41;0.00;99.90
9668;DHT22;4872;48.316;10.650;2022-12-10T18:01:08;0.00;99.90
9668;DHT22;4872;48.316;10.650;2022-12-10T18:03:35;0.00;99.90
9668;DHT22;4872;48.316;10.650;2022-12-10T18:06:03;0.10;99.90
9668;DHT22;4872;48.316;10.650;2022-12-10T18:08:30;0.10;99.90
9668;DHT22;4872;48.316;10.650;2022-12-10T18:10:58;0.20;99.90
9668;DHT22;4872;48.316;10.650;2022-12-10T18:13:25;0.10;99.90
9668;DHT22;4872;48.316;10.650;2022-12-10T18:15:52;0.20;99.90
9668;DHT22;4872;48.316;10.650;2022-12-10T18:18:19;0.10;99.90
9668;DHT22;4872;48.316;10.650;2022-12-10T18:20:46;0.10;99.90
9668;DHT22;4872;48.316;10.650;2022-12-10T18:23:13;0.10;99.90
9668;DHT22;4872;48.316;10.650;2022-12-10T18:25:42;0.20;99.90
9668;DHT22;4872;48.316;10.650;2022-12-10T18:28:42;0.20;99.90
9668;DHT22;4872;48.316;10.650;2022-12-10T18:31:13;0.20;99.90
9668;DHT22;4872;48.316;10.650;2022-12-10T18:33:42;0.10;99.90
9668;DHT22;4872;48.316;10.650;2022-12-10T18:36:12;0.10;99.90
9668;DHT22;4872;48.316;10.650;2022-12-10T18:38:40;0.10;99.90
9668;DHT22;4872;48.316;10.650;2022-12-10T18:41:09;0.10;99.90
9668;DHT22;4872;48.316;10.650;2022-12-10T18:43:38;0.10;99.90
9668;DHT22;4872;48.316;10.650;2022-12-10T18:46:05;0.10;99.90
9668;DHT22;4872;48.316;10.650;2022-12-10T18:48:32;0.00;99.90
9668;DHT22;4872;48.316;10.650;2022-12-10T18:50:59;-0.10;99.90
9668;DHT22;4872;48.316;10.650;2022-12-10T18:53:26;-0.10;99.90
9668;DHT22;4872;48.316;10.650;2022-12-10T18:55:53;-0.20;99.90
9668;DHT22;4872;48.316;10.650;2022-12-10T18:58:20;-0.20;99.90
9668;DHT22;4872;48.316;10.650;2022-12-10T19:00:48;-0.20;99.90
9668;DHT22;4872;48.316;10.650;2022-12-10T19:03:16;-0.20;99.90
9668;DHT22;4872;48.316;10.650;2022-12-10T19:05:42;-0.10;99.90
9668;DHT22;4872;48.316;10.650;2022-12-10T19:08:10;-0.10;99.90
9668;DHT22;4872;48.316;10.650;2022-12-10T19:10:37;0.00;99.90
9668;DHT22;4872;48.316;10.650;2022-12-10T19:13:04;0.10;99.90
9668;DHT22;4872;48.316;10.650;2022-12-10T19:15:31;0.00;99.90
9668;DHT22;4872;48.316;10.650;2022-12-10T19:18:00;0.10;99.90
9668;DHT22;4872;48.316;10.650;2022-12-10T19:20:29;0.00;99.90
9668;DHT22;4872;48.316;10.650;2022-12-10T19:22:56;0.00;99.90
9668;DHT22;4872;48.316;10.650;2022-12-10T19:25:23;-0.10;99.90
9668;DHT22;4872;48.316;10.650;2022-12-10T19:27:50;-0.20;99.90
9668;DHT22;4872;48.316;10.650;2022-12-10T19:30:19;-0.10;99.90
9668;DHT22;4872;48.316;10.650;2022-12-10T19:32:46;0.00;99.90
9668;DHT22;4872;48.316;10.650;2022-12-10T19:35:16;0.00;99.90
9668;DHT22;4872;48.316;10.650;2022-12-10T19:37:43;-0.20;99.90
9668;DHT22;4872;48.316;10.650;2022-12-10T19:40:20;-0.20;99.90
9668;DHT22;4872;48.316;10.650;2022-12-10T19:42:47;-0.20;99.90
9668;DHT22;4872;48.316;10.650;2022-12-10T19:45:14;-0.20;99.90
9668;DHT22;4872;48.316;10.650;2022-12-10T19:47:42;-0.20;99.90
9668;DHT22;4872;48.316;10.650;2022-12-10T19:50:15;-0.10;99.90
9668;DHT22;4872;48.316;10.650;2022-12-10T19:52:43;-0.10;99.90
9668;DHT22;4872;48.316;10.650;2022-12-10T19:55:10;0.00;99.90
9668;DHT22;4872;48.316;10.650;2022-12-10T19:57:37;0.00;99.90
9668;DHT22;4872;48.316;10.650;2022-12-10T20:00:06;0.00;99.90
9668;DHT22;4872;48.316;10.650;2022-12-10T20:02:35;0.10;99.90
9668;DHT22;4872;48.316;10.650;2022-12-10T20:05:03;0.10;99.90
9668;DHT22;4872;48.316;10.650;2022-12-10T20:07:31;0.20;99.90
9668;DHT22;4872;48.316;10.650;2022-12-10T20:09:58;0.20;99.90
9668;DHT22;4872;48.316;10.650;2022-12-10T20:12:25;0.20;99.90
9668;DHT22;4872;48.316;10.650;2022-12-10T20:14:53;0.30;99.90
9668;DHT22;4872;48.316;10.650;2022-12-10T20:17:19;0.20;99.90
9668;DHT22;4872;48.316;10.650;2022-12-10T20:19:49;0.20;99.90
9668;DHT22;4872;48.316;10.650;2022-12-10T20:22:16;0.20;99.90
9668;DHT22;4872;48.316;10.650;2022-12-10T20:24:44;0.20;99.90
9668;DHT22;4872;48.316;10.650;2022-12-10T20:27:12;0.20;99.90
9668;DHT22;4872;48.316;10.650;2022-12-10T20:29:40;0.10;99.90
9668;DHT22;4872;48.316;10.650;2022-12-10T20:32:07;0.00;99.90
9668;DHT22;4872;48.316;10.650;2022-12-10T20:34:35;0.10;99.90
9668;DHT22;4872;48.316;10.650;2022-12-10T20:37:02;0.10;99.90
9668;DHT22;4872;48.316;10.650;2022-12-10T20:39:31;0.10;99.90
9668;DHT22;4872;48.316;10.650;2022-12-10T20:42:00;0.00;99.90
9668;DHT22;4872;48.316;10.650;2022-12-10T20:44:29;0.00;99.90
9668;DHT22;4872;48.316;10.650;2022-12-10T20:46:56;0.00;99.90
9668;DHT22;4872;48.316;10.650;2022-12-10T20:49:25;0.00;99.90
9668;DHT22;4872;48.316;10.650;2022-12-10T20:51:52;0.20;99.90
9668;DHT22;4872;48.316;10.650;2022-12-10T20:54:19;0.10;99.90
9668;DHT22;4872;48.316;10.650;2022-12-10T20:56:46;0.10;99.90
9668;DHT22;4872;48.316;10.650;2022-12-10T20:59:15;0.10;99.90
9668;DHT22;4872;48.316;10.650;2022-12-10T21:01:42;0.10;99.90
9668;DHT22;4872;48.316;10.650;2022-12-10T21:04:09;0.10;99.90
9668;DHT22;4872;48.316;10.650;2022-12-10T21:06:36;-0.10;99.90
9668;DHT22;4872;48.316;10.650;2022-12-10T21:09:03;-0.10;99.90
9668;DHT22;4872;48.316;10.650;2022-12-10T21:11:30;-0.10;99.90
9668;DHT22;4872;48.316;10.650;2022-12-10T21:13:57;0.00;99.90
9668;DHT22;4872;48.316;10.650;2022-12-10T21:16:26;0.00;99.90